sensor_id;sensor_type;location;lat;lon;timestamp;pressure;altitude;pressure_sealevel;temperature;humidity
54146;BME280;40052;49.422;7.738;2022-09-27T00:01:15;73549.47;;;-145.25;97.37
54146;BME280;40052;49.422;7.738;2022-09-27T00:03:41;73565.50;;;-145.25;97.27
54146;BME280;40052;49.422;7.738;2022-09-27T00:06:07;73571.53;;;-145.25;97.44
54146;BME280;40052;49.422;7.738;2022-09-27T00:08:34;73575.53;;;-145.25;97.21
54146;BME280;40052;49.422;7.738;2022-09-27T00:11:04;73565.50;;;-145.25;97.14
54146;BME280;40052;49.422;7.738;2022-09-27T00:13:32;73573.53;;;-145.25;96.70
54146;BME280;40052;49.422;7.738;2022-09-27T00:15:59;73577.53;;;-145.25;96.31
54146;BME280;40052;49.422;7.738;2022-09-27T00:18:25;73577.53;;;-145.25;96.36
54146;BME280;40052;49.422;7.738;2022-09-27T00:20:53;73581.53;;;-145.25;96.61
54146;BME280;40052;49.422;7.738;2022-09-27T00:23:19;73591.56;;;-145.25;96.28
54146;BME280;40052;49.422;7.738;2022-09-27T00:26:05;73593.56;;;-145.25;96.29
54146;BME280;40052;49.422;7.738;2022-09-27T00:28:32;73589.56;;;-145.25;95.92
54146;BME280;40052;49.422;7.738;2022-09-27T00:30:57;73591.56;;;-145.25;96.08
54146;BME280;40052;49.422;7.738;2022-09-27T00:33:24;73581.53;;;-145.25;96.03
54146;BME280;40052;49.422;7.738;2022-09-27T00:35:49;73591.56;;;-145.25;95.08
54146;BME280;40052;49.422;7.738;2022-09-27T00:38:15;73587.56;;;-145.25;94.99
54146;BME280;40052;49.422;7.738;2022-09-27T00:40:43;73591.56;;;-145.25;94.36
54146;BME280;40052;49.422;7.738;2022-09-27T00:43:22;73581.53;;;-145.25;94.44
54146;BME280;40052;49.422;7.738;2022-09-27T00:45:55;73607.59;;;-145.25;95.34
54146;BME280;40052;49.422;7.738;2022-09-27T00:48:25;73597.56;;;-145.25;95.67
54146;BME280;40052;49.422;7.738;2022-09-27T00:50:55;73593.56;;;-145.25;95.60
54146;BME280;40052;49.422;7.738;2022-09-27T00:56:07;73581.53;;;-145.25;95.21
54146;BME280;40052;49.422;7.738;2022-09-27T00:59:01;73593.56;;;-145.25;95.90
54146;BME280;40052;49.422;7.738;2022-09-27T01:01:30;73599.56;;;-145.25;96.21
54146;BME280;40052;49.422;7.738;2022-09-27T01:04:08;73599.56;;;-145.25;96.08
54146;BME280;40052;49.422;7.738;2022-09-27T01:06:35;73595.56;;;-145.25;96.77
54146;BME280;40052;49.422;7.738;2022-09-27T01:09:02;73583.53;;;-145.25;96.13
54146;BME280;40052;49.422;7.738;2022-09-27T01:11:37;73599.56;;;-145.25;95.83
54146;BME280;40052;49.422;7.738;2022-09-27T01:41:25;73603.56;;;-145.25;96.64
54146;BME280;40052;49.422;7.738;2022-09-27T01:44:03;73605.56;;;-145.25;96.93
54146;BME280;40052;49.422;7.738;2022-09-27T01:46:36;73603.56;;;-145.25;96.70
54146;BME280;40052;49.422;7.738;2022-09-27T01:49:07;73607.59;;;-145.25;96.43
54146;BME280;40052;49.422;7.738;2022-09-27T01:51:59;73603.56;;;-145.25;96.28
54146;BME280;40052;49.422;7.738;2022-09-27T01:54:49;73599.56;;;-145.25;96.38
54146;BME280;40052;49.422;7.738;2022-09-27T01:57:24;73603.56;;;-145.25;95.77
54146;BME280;40052;49.422;7.738;2022-09-27T01:59:56;73607.59;;;-145.25;96.15
54146;BME280;40052;49.422;7.738;2022-09-27T02:02:26;73585.53;;;-145.25;96.25
54146;BME280;40052;49.422;7.738;2022-09-27T02:04:56;73605.56;;;-145.25;95.13
54146;BME280;40052;49.422;7.738;2022-09-27T02:07:31;73601.56;;;-145.25;95.09
54146;BME280;40052;49.422;7.738;2022-09-27T02:10:12;73605.56;;;-145.25;95.68
54146;BME280;40052;49.422;7.738;2022-09-27T02:12:50;73607.59;;;-145.25;94.93
54146;BME280;40052;49.422;7.738;2022-09-27T02:15:17;73621.59;;;-145.25;95.42
54146;BME280;40052;49.422;7.738;2022-09-27T02:18:00;73607.59;;;-145.25;94.85
54146;BME280;40052;49.422;7.738;2022-09-27T02:20:34;73611.59;;;-145.25;94.64
54146;BME280;40052;49.422;7.738;2022-09-27T02:23:22;73623.59;;;-145.25;95.08
54146;BME280;40052;49.422;7.738;2022-09-27T02:25:56;73621.59;;;-145.25;95.51
54146;BME280;40052;49.422;7.738;2022-09-27T02:28:42;73625.63;;;-145.25;95.02
54146;BME280;40052;49.422;7.738;2022-09-27T02:31:10;73629.63;;;-145.25;94.93
54146;BME280;40052;49.422;7.738;2022-09-27T02:33:50;73641.63;;;-145.25;95.04
54146;BME280;40052;49.422;7.738;2022-09-27T02:36:19;73629.63;;;-145.25;94.79
54146;BME280;40052;49.422;7.738;2022-09-27T02:38:45;73649.66;;;-145.25;94.82
54146;BME280;40052;49.422;7.738;2022-09-27T02:41:15;73661.69;;;-145.25;95.40
54146;BME280;40052;49.422;7.738;2022-09-27T02:43:44;73659.66;;;-145.25;95.59
54146;BME280;40052;49.422;7.738;2022-09-27T02:54:38;73667.69;;;-145.25;95.83
54146;BME280;40052;49.422;7.738;2022-09-27T03:02:34;73685.72;;;-145.25;95.34
54146;BME280;40052;49.422;7.738;2022-09-27T03:05:06;73695.72;;;-145.25;94.84
54146;BME280;40052;49.422;7.738;2022-09-27T03:07:35;73697.75;;;-145.25;94.98
54146;BME280;40052;49.422;7.738;2022-09-27T03:10:12;73689.72;;;-145.25;94.87
54146;BME280;40052;49.422;7.738;2022-09-27T03:12:39;73689.72;;;-145.25;94.73
54146;BME280;40052;49.422;7.738;2022-09-27T03:15:05;73709.75;;;-145.25;94.97
54146;BME280;40052;49.422;7.738;2022-09-27T03:17:30;73709.75;;;-145.25;94.54
54146;BME280;40052;49.422;7.738;2022-09-27T03:19:56;73715.78;;;-145.25;94.20
54146;BME280;40052;49.422;7.738;2022-09-27T03:22:24;73723.78;;;-145.25;94.30
54146;BME280;40052;49.422;7.738;2022-09-27T03:24:50;73727.78;;;-145.25;94.05
54146;BME280;40052;49.422;7.738;2022-09-27T03:27:17;73733.81;;;-145.25;94.00
54146;BME280;40052;49.422;7.738;2022-09-27T03:29:42;73741.81;;;-145.25;94.56
54146;BME280;40052;49.422;7.738;2022-09-27T03:32:07;73737.81;;;-145.25;95.03
54146;BME280;40052;49.422;7.738;2022-09-27T03:34:33;73731.78;;;-145.25;94.27
54146;BME280;40052;49.422;7.738;2022-09-27T03:36:58;73733.81;;;-145.25;94.56
54146;BME280;40052;49.422;7.738;2022-09-27T03:39:26;73733.81;;;-145.25;94.31
54146;BME280;40052;49.422;7.738;2022-09-27T03:41:52;73719.78;;;-145.25;93.53
54146;BME280;40052;49.422;7.738;2022-09-27T03:44:21;73721.78;;;-145.25;93.48
54146;BME280;40052;49.422;7.738;2022-09-27T03:46:47;73743.81;;;-145.25;93.58
54146;BME280;40052;49.422;7.738;2022-09-27T03:49:12;73747.81;;;-145.25;93.62
54146;BME280;40052;49.422;7.738;2022-09-27T03:51:37;73751.84;;;-145.25;93.10
54146;BME280;40052;49.422;7.738;2022-09-27T03:54:03;73749.81;;;-145.25;93.59
54146;BME280;40052;49.422;7.738;2022-09-27T03:56:29;73749.81;;;-145.25;93.19
54146;BME280;40052;49.422;7.738;2022-09-27T03:58:57;73755.84;;;-145.25;93.59
54146;BME280;40052;49.422;7.738;2022-09-27T04:01:22;73773.88;;;-145.25;93.43
54146;BME280;40052;49.422;7.738;2022-09-27T04:03:50;73775.88;;;-145.25;93.33
54146;BME280;40052;49.422;7.738;2022-09-27T04:06:18;73765.84;;;-145.25;92.99
54146;BME280;40052;49.422;7.738;2022-09-27T04:08:44;73771.88;;;-145.25;92.55
54146;BME280;40052;49.422;7.738;2022-09-27T04:11:12;73775.88;;;-145.25;92.93
54146;BME280;40052;49.422;7.738;2022-09-27T04:13:39;73775.88;;;-145.25;92.98
54146;BME280;40052;49.422;7.738;2022-09-27T04:16:05;73765.84;;;-145.25;92.17
54146;BME280;40052;49.422;7.738;2022-09-27T04:18:33;73761.84;;;-145.25;91.50
54146;BME280;40052;49.422;7.738;2022-09-27T04:21:00;73783.88;;;-145.25;91.61
54146;BME280;40052;49.422;7.738;2022-09-27T04:23:26;73777.88;;;-145.25;91.50
54146;BME280;40052;49.422;7.738;2022-09-27T04:25:52;73781.88;;;-145.25;92.25
54146;BME280;40052;49.422;7.738;2022-09-27T04:28:20;73777.88;;;-145.25;91.81
54146;BME280;40052;49.422;7.738;2022-09-27T04:30:46;73789.91;;;-145.25;91.93
54146;BME280;40052;49.422;7.738;2022-09-27T04:33:13;73775.88;;;-145.25;91.84
54146;BME280;40052;49.422;7.738;2022-09-27T04:35:42;73787.91;;;-145.25;91.56
54146;BME280;40052;49.422;7.738;2022-09-27T04:38:29;73779.88;;;-145.25;91.73
54146;BME280;40052;49.422;7.738;2022-09-27T04:40:54;73791.91;;;-145.25;91.62
54146;BME280;40052;49.422;7.738;2022-09-27T04:43:20;73793.91;;;-145.25;91.95
54146;BME280;40052;49.422;7.738;2022-09-27T04:45:45;73789.91;;;-145.25;92.00
54146;BME280;40052;49.422;7.738;2022-09-27T04:48:13;73793.91;;;-145.25;91.67
54146;BME280;40052;49.422;7.738;2022-09-27T04:50:41;73801.91;;;-145.25;91.96
54146;BME280;40052;49.422;7.738;2022-09-27T04:53:12;73791.91;;;-145.25;91.86
54146;BME280;40052;49.422;7.738;2022-09-27T04:55:38;73791.91;;;-145.25;91.83
54146;BME280;40052;49.422;7.738;2022-09-27T04:58:06;73781.88;;;-145.25;91.09
54146;BME280;40052;49.422;7.738;2022-09-27T05:00:31;73793.91;;;-145.25;91.10
54146;BME280;40052;49.422;7.738;2022-09-27T05:02:57;73795.91;;;-145.25;91.32
54146;BME280;40052;49.422;7.738;2022-09-27T05:05:22;73797.91;;;-145.25;91.26
54146;BME280;40052;49.422;7.738;2022-09-27T05:07:47;73803.91;;;-145.25;90.83
54146;BME280;40052;49.422;7.738;2022-09-27T05:10:13;73809.94;;;-145.25;90.66
54146;BME280;40052;49.422;7.738;2022-09-27T05:12:39;73813.94;;;-145.25;90.63
54146;BME280;40052;49.422;7.738;2022-09-27T05:15:07;73811.94;;;-145.25;90.12
54146;BME280;40052;49.422;7.738;2022-09-27T05:17:33;73803.91;;;-145.25;89.72
54146;BME280;40052;49.422;7.738;2022-09-27T05:20:02;73819.94;;;-145.25;90.04
54146;BME280;40052;49.422;7.738;2022-09-27T05:22:28;73819.94;;;-145.25;90.66
54146;BME280;40052;49.422;7.738;2022-09-27T05:24:54;73829.97;;;-145.25;90.73
54146;BME280;40052;49.422;7.738;2022-09-27T05:27:22;73831.97;;;-145.25;91.02
54146;BME280;40052;49.422;7.738;2022-09-27T05:29:49;73829.97;;;-145.25;91.22
54146;BME280;40052;49.422;7.738;2022-09-27T05:32:15;73837.97;;;-145.25;91.58
54146;BME280;40052;49.422;7.738;2022-09-27T05:34:40;73835.97;;;-145.25;92.04
54146;BME280;40052;49.422;7.738;2022-09-27T05:37:06;73846.00;;;-145.25;92.25
54146;BME280;40052;49.422;7.738;2022-09-27T05:39:32;73858.03;;;-145.25;91.59
54146;BME280;40052;49.422;7.738;2022-09-27T05:41:57;73860.03;;;-145.25;91.18
54146;BME280;40052;49.422;7.738;2022-09-27T05:44:23;73860.03;;;-145.25;90.94
54146;BME280;40052;49.422;7.738;2022-09-27T05:46:52;73858.03;;;-145.25;89.98
54146;BME280;40052;49.422;7.738;2022-09-27T05:49:17;73860.03;;;-145.25;89.98
54146;BME280;40052;49.422;7.738;2022-09-27T05:51:44;73856.00;;;-145.25;90.01
54146;BME280;40052;49.422;7.738;2022-09-27T05:54:12;73854.00;;;-145.25;90.44
54146;BME280;40052;49.422;7.738;2022-09-27T05:56:37;73860.03;;;-145.25;90.46
54146;BME280;40052;49.422;7.738;2022-09-27T05:59:02;73870.03;;;-145.25;89.85
54146;BME280;40052;49.422;7.738;2022-09-27T06:01:28;73880.06;;;-145.25;90.41
54146;BME280;40052;49.422;7.738;2022-09-27T06:03:53;73866.03;;;-145.25;89.39
54146;BME280;40052;49.422;7.738;2022-09-27T06:06:19;73866.03;;;-145.25;89.23
54146;BME280;40052;49.422;7.738;2022-09-27T06:08:47;73862.03;;;-145.25;88.82
54146;BME280;40052;49.422;7.738;2022-09-27T06:11:13;73870.03;;;-145.25;88.14
54146;BME280;40052;49.422;7.738;2022-09-27T06:13:39;73868.03;;;-145.25;88.38
54146;BME280;40052;49.422;7.738;2022-09-27T06:16:10;73866.03;;;-145.25;88.35
54146;BME280;40052;49.422;7.738;2022-09-27T06:18:36;73860.03;;;-145.25;87.42
54146;BME280;40052;49.422;7.738;2022-09-27T06:21:04;73862.03;;;-145.25;87.70
54146;BME280;40052;49.422;7.738;2022-09-27T06:23:30;73850.00;;;-145.25;87.92
54146;BME280;40052;49.422;7.738;2022-09-27T06:26:01;73866.03;;;-145.25;86.87
54146;BME280;40052;49.422;7.738;2022-09-27T06:28:27;73862.03;;;-145.25;88.02
54146;BME280;40052;49.422;7.738;2022-09-27T06:30:53;73870.03;;;-145.25;88.53
54146;BME280;40052;49.422;7.738;2022-09-27T06:33:21;73860.03;;;-145.25;88.04
54146;BME280;40052;49.422;7.738;2022-09-27T06:35:47;73854.00;;;-145.25;87.47
54146;BME280;40052;49.422;7.738;2022-09-27T06:38:15;73866.03;;;-145.25;88.28
54146;BME280;40052;49.422;7.738;2022-09-27T06:40:42;73862.03;;;-145.25;87.58
54146;BME280;40052;49.422;7.738;2022-09-27T06:43:15;73874.03;;;-145.25;87.11
54146;BME280;40052;49.422;7.738;2022-09-27T06:45:41;73872.03;;;-145.25;87.38
54146;BME280;40052;49.422;7.738;2022-09-27T06:48:08;73858.03;;;-145.25;87.11
54146;BME280;40052;49.422;7.738;2022-09-27T06:50:38;73878.06;;;-145.25;86.95
54146;BME280;40052;49.422;7.738;2022-09-27T06:53:04;73860.03;;;-145.25;86.57
54146;BME280;40052;49.422;7.738;2022-09-27T06:55:30;73860.03;;;-145.25;86.28
54146;BME280;40052;49.422;7.738;2022-09-27T06:57:59;73880.06;;;-145.25;86.06
54146;BME280;40052;49.422;7.738;2022-09-27T07:00:44;73870.03;;;-145.25;86.93
54146;BME280;40052;49.422;7.738;2022-09-27T07:03:12;73866.03;;;-145.25;85.51
54146;BME280;40052;49.422;7.738;2022-09-27T07:05:41;73870.03;;;-145.25;85.59
54146;BME280;40052;49.422;7.738;2022-09-27T07:08:09;73876.06;;;-145.25;86.46
54146;BME280;40052;49.422;7.738;2022-09-27T07:10:38;73866.03;;;-145.25;86.05
54146;BME280;40052;49.422;7.738;2022-09-27T07:13:10;73866.03;;;-145.25;86.69
54146;BME280;40052;49.422;7.738;2022-09-27T07:15:36;73846.00;;;-145.25;85.75
54146;BME280;40052;49.422;7.738;2022-09-27T07:18:03;73856.00;;;-145.25;86.08
54146;BME280;40052;49.422;7.738;2022-09-27T07:20:30;73854.00;;;-145.25;85.14
54146;BME280;40052;49.422;7.738;2022-09-27T07:22:59;73858.03;;;-145.25;84.54
54146;BME280;40052;49.422;7.738;2022-09-27T07:25:25;73848.00;;;-145.25;84.58
54146;BME280;40052;49.422;7.738;2022-09-27T07:27:53;73860.03;;;-145.25;84.54
54146;BME280;40052;49.422;7.738;2022-09-27T07:30:19;73854.00;;;-145.25;85.57
54146;BME280;40052;49.422;7.738;2022-09-27T07:32:45;73864.03;;;-145.25;85.78
54146;BME280;40052;49.422;7.738;2022-09-27T07:35:11;73854.00;;;-145.25;85.30
54146;BME280;40052;49.422;7.738;2022-09-27T07:37:40;73856.00;;;-145.25;84.98
54146;BME280;40052;49.422;7.738;2022-09-27T07:40:06;73862.03;;;-145.25;84.99
54146;BME280;40052;49.422;7.738;2022-09-27T07:42:33;73850.00;;;-145.25;84.60
54146;BME280;40052;49.422;7.738;2022-09-27T07:44:59;73860.03;;;-145.25;83.28
54146;BME280;40052;49.422;7.738;2022-09-27T07:47:26;73835.97;;;-145.25;83.31
54146;BME280;40052;49.422;7.738;2022-09-27T07:49:54;73799.91;;;-145.25;82.23
54146;BME280;40052;49.422;7.738;2022-09-27T07:52:24;73793.91;;;-145.25;81.58
54146;BME280;40052;49.422;7.738;2022-09-27T07:54:49;73747.81;;;-145.25;81.19
54146;BME280;40052;49.422;7.738;2022-09-27T07:57:22;73709.75;;;-145.25;79.26
54146;BME280;40052;49.422;7.738;2022-09-27T07:59:47;73697.75;;;-145.25;77.36
54146;BME280;40052;49.422;7.738;2022-09-27T08:02:15;73719.78;;;-145.25;76.02
54146;BME280;40052;49.422;7.738;2022-09-27T08:04:41;73703.75;;;-145.25;77.17
54146;BME280;40052;49.422;7.738;2022-09-27T08:07:08;73665.69;;;-145.25;75.73
54146;BME280;40052;49.422;7.738;2022-09-27T08:09:34;73639.63;;;-145.25;74.56
54146;BME280;40052;49.422;7.738;2022-09-27T08:11:59;73681.72;;;-145.25;74.91
54146;BME280;40052;49.422;7.738;2022-09-27T08:14:25;73697.75;;;-145.25;76.09
54146;BME280;40052;49.422;7.738;2022-09-27T08:16:52;73745.81;;;-145.25;76.86
54146;BME280;40052;49.422;7.738;2022-09-27T08:19:18;73767.84;;;-145.25;76.97
54146;BME280;40052;49.422;7.738;2022-09-27T08:21:46;73763.84;;;-145.25;77.48
54146;BME280;40052;49.422;7.738;2022-09-27T08:24:14;73739.81;;;-145.25;76.90
54146;BME280;40052;49.422;7.738;2022-09-27T08:26:41;73731.78;;;-145.25;77.45
54146;BME280;40052;49.422;7.738;2022-09-27T08:29:09;73743.81;;;-145.25;76.85
54146;BME280;40052;49.422;7.738;2022-09-27T08:31:35;73757.84;;;-145.25;76.12
54146;BME280;40052;49.422;7.738;2022-09-27T08:34:02;73783.88;;;-145.25;77.00
54146;BME280;40052;49.422;7.738;2022-09-27T08:36:29;73755.84;;;-145.25;77.37
54146;BME280;40052;49.422;7.738;2022-09-27T08:38:56;73789.91;;;-145.25;77.14
54146;BME280;40052;49.422;7.738;2022-09-27T08:41:46;73787.91;;;-145.25;77.74
54146;BME280;40052;49.422;7.738;2022-09-27T08:49:46;73787.91;;;-145.25;77.79
54146;BME280;40052;49.422;7.738;2022-09-27T08:52:19;73767.84;;;-145.25;77.17
54146;BME280;40052;49.422;7.738;2022-09-27T08:54:50;73797.91;;;-145.25;78.62
54146;BME280;40052;49.422;7.738;2022-09-27T08:57:18;73789.91;;;-145.25;78.76
54146;BME280;40052;49.422;7.738;2022-09-27T09:02:24;73779.88;;;-145.25;79.49
54146;BME280;40052;49.422;7.738;2022-09-27T09:04:57;73811.94;;;-145.25;79.36
54146;BME280;40052;49.422;7.738;2022-09-27T09:19:06;73803.91;;;-145.25;78.27
54146;BME280;40052;49.422;7.738;2022-09-27T09:22:01;73805.94;;;-145.25;77.95
54146;BME280;40052;49.422;7.738;2022-09-27T09:30:13;73791.91;;;-145.25;78.09
54146;BME280;40052;49.422;7.738;2022-09-27T09:35:35;73775.88;;;-145.25;78.39
54146;BME280;40052;49.422;7.738;2022-09-27T09:38:15;73739.81;;;-145.25;78.66
54146;BME280;40052;49.422;7.738;2022-09-27T09:40:51;73719.78;;;-145.25;77.36
54146;BME280;40052;49.422;7.738;2022-09-27T09:43:39;73687.72;;;-145.25;76.61
54146;BME280;40052;49.422;7.738;2022-09-27T09:46:15;73679.72;;;-145.25;75.73
54146;BME280;40052;49.422;7.738;2022-09-27T09:48:50;73681.72;;;-145.25;75.58
54146;BME280;40052;49.422;7.738;2022-09-27T09:51:23;73651.66;;;-145.25;74.66
54146;BME280;40052;49.422;7.738;2022-09-27T09:54:03;73649.66;;;-145.25;75.43
54146;BME280;40052;49.422;7.738;2022-09-27T09:56:37;73621.59;;;-145.25;73.25
54146;BME280;40052;49.422;7.738;2022-09-27T09:59:14;73637.63;;;-145.25;73.02
54146;BME280;40052;49.422;7.738;2022-09-27T10:01:44;73641.63;;;-145.25;73.87
54146;BME280;40052;49.422;7.738;2022-09-27T10:04:18;73645.66;;;-145.25;73.26
54146;BME280;40052;49.422;7.738;2022-09-27T10:06:45;73629.63;;;-145.25;72.90
54146;BME280;40052;49.422;7.738;2022-09-27T10:09:14;73661.69;;;-145.25;72.78
54146;BME280;40052;49.422;7.738;2022-09-27T10:11:43;73651.66;;;-145.25;73.93
54146;BME280;40052;49.422;7.738;2022-09-27T10:14:14;73619.59;;;-145.25;74.44
54146;BME280;40052;49.422;7.738;2022-09-27T10:16:44;73605.56;;;-145.25;74.15
54146;BME280;40052;49.422;7.738;2022-09-27T10:19:15;73641.63;;;-145.25;72.70
54146;BME280;40052;49.422;7.738;2022-09-27T10:21:41;73633.63;;;-145.25;72.65
54146;BME280;40052;49.422;7.738;2022-09-27T10:24:15;73599.56;;;-145.25;71.72
54146;BME280;40052;49.422;7.738;2022-09-27T10:26:42;73593.56;;;-145.25;71.49
54146;BME280;40052;49.422;7.738;2022-09-27T10:29:30;73599.56;;;-145.25;71.75
54146;BME280;40052;49.422;7.738;2022-09-27T10:32:03;73619.59;;;-145.25;71.94
54146;BME280;40052;49.422;7.738;2022-09-27T10:34:32;73639.63;;;-145.25;70.84
54146;BME280;40052;49.422;7.738;2022-09-27T10:39:29;73609.59;;;-145.25;71.27
54146;BME280;40052;49.422;7.738;2022-09-27T10:41:57;73607.59;;;-145.25;69.61
54146;BME280;40052;49.422;7.738;2022-09-27T10:44:27;73629.63;;;-145.25;71.07
54146;BME280;40052;49.422;7.738;2022-09-27T10:47:08;73617.59;;;-145.25;69.87
54146;BME280;40052;49.422;7.738;2022-09-27T10:49:36;73571.53;;;-145.25;68.85
54146;BME280;40052;49.422;7.738;2022-09-27T10:52:25;73465.34;;;-145.25;67.00
54146;BME280;40052;49.422;7.738;2022-09-27T10:54:59;73369.19;;;-145.25;64.84
54146;BME280;40052;49.422;7.738;2022-09-27T10:57:31;73363.16;;;-145.25;62.57
54146;BME280;40052;49.422;7.738;2022-09-27T11:00:21;73291.06;;;-145.25;61.00
54146;BME280;40052;49.422;7.738;2022-09-27T11:03:11;73377.19;;;-145.25;61.43
54146;BME280;40052;49.422;7.738;2022-09-27T11:05:42;73246.97;;;-145.25;59.60
54146;BME280;40052;49.422;7.738;2022-09-27T11:13:25;73365.19;;;-145.25;57.81
54146;BME280;40052;49.422;7.738;2022-09-27T11:29:10;73271.03;;;-145.25;58.90
54146;BME280;40052;49.422;7.738;2022-09-27T11:40:19;73405.25;;;-145.25;58.71
54146;BME280;40052;49.422;7.738;2022-09-27T11:43:05;73449.31;;;-145.25;60.29
54146;BME280;40052;49.422;7.738;2022-09-27T11:50:55;73453.31;;;-145.25;60.38
54146;BME280;40052;49.422;7.738;2022-09-27T11:53:38;73385.22;;;-145.25;59.49
54146;BME280;40052;49.422;7.738;2022-09-27T12:10:50;73226.94;;;-145.25;54.11
54146;BME280;40052;49.422;7.738;2022-09-27T12:13:49;73212.94;;;-145.25;54.50
54146;BME280;40052;49.422;7.738;2022-09-27T12:16:15;73202.91;;;-145.25;54.32
54146;BME280;40052;49.422;7.738;2022-09-27T12:18:49;73275.03;;;-145.25;55.64
54146;BME280;40052;49.422;7.738;2022-09-27T12:21:19;73269.00;;;-145.25;57.64
54146;BME280;40052;49.422;7.738;2022-09-27T12:23:48;73246.97;;;-145.25;54.55
54146;BME280;40052;49.422;7.738;2022-09-27T12:26:18;73088.72;;;-145.25;54.92
54146;BME280;40052;49.422;7.738;2022-09-27T12:34:45;72978.56;;;-145.25;52.81
54146;BME280;40052;49.422;7.738;2022-09-27T12:37:28;72948.50;;;-145.25;50.69
54146;BME280;40052;49.422;7.738;2022-09-27T12:40:05;73056.69;;;-145.25;51.90
54146;BME280;40052;49.422;7.738;2022-09-27T12:45:11;73178.88;;;-145.25;55.64
54146;BME280;40052;49.422;7.738;2022-09-27T12:50:34;73323.09;;;-145.25;57.13
54146;BME280;40052;49.422;7.738;2022-09-27T12:53:14;73349.16;;;-145.25;58.31
54146;BME280;40052;49.422;7.738;2022-09-27T12:56:31;73363.16;;;-145.25;59.08
54146;BME280;40052;49.422;7.738;2022-09-27T13:12:21;73359.16;;;-145.25;60.59
54146;BME280;40052;49.422;7.738;2022-09-27T13:15:04;73361.16;;;-145.25;59.99
54146;BME280;40052;49.422;7.738;2022-09-27T13:22:59;73238.97;;;-145.25;57.51
54146;BME280;40052;49.422;7.738;2022-09-27T13:31:10;73118.78;;;-145.25;53.60
54146;BME280;40052;49.422;7.738;2022-09-27T13:33:52;73126.78;;;-145.25;54.37
54146;BME280;40052;49.422;7.738;2022-09-27T13:47:01;73275.03;;;-145.25;58.82
54146;BME280;40052;49.422;7.738;2022-09-27T13:49:31;73307.06;;;-145.25;58.84
54146;BME280;40052;49.422;7.738;2022-09-27T13:54:52;73325.09;;;-145.25;59.00
54146;BME280;40052;49.422;7.738;2022-09-27T13:57:46;73295.06;;;-145.25;58.08
54146;BME280;40052;49.422;7.738;2022-09-27T14:00:19;73303.06;;;-145.25;59.68
54146;BME280;40052;49.422;7.738;2022-09-27T14:05:50;73393.22;;;-145.25;61.82
54146;BME280;40052;49.422;7.738;2022-09-27T14:09:03;73419.25;;;-145.25;61.59
54146;BME280;40052;49.422;7.738;2022-09-27T14:11:42;73423.28;;;-145.25;62.75
54146;BME280;40052;49.422;7.738;2022-09-27T14:14:18;73467.34;;;-145.25;63.37
54146;BME280;40052;49.422;7.738;2022-09-27T14:16:49;73469.34;;;-145.25;64.43
54146;BME280;40052;49.422;7.738;2022-09-27T14:19:20;73453.31;;;-145.25;63.97
54146;BME280;40052;49.422;7.738;2022-09-27T14:21:46;73483.38;;;-145.25;64.34
54146;BME280;40052;49.422;7.738;2022-09-27T14:27:10;73521.44;;;-145.25;68.50
54146;BME280;40052;49.422;7.738;2022-09-27T14:32:15;73601.56;;;-145.25;72.67
54146;BME280;40052;49.422;7.738;2022-09-27T14:34:41;73607.59;;;-145.25;72.84
54146;BME280;40052;49.422;7.738;2022-09-27T14:37:22;73579.53;;;-145.25;73.62
54146;BME280;40052;49.422;7.738;2022-09-27T14:39:59;73455.31;;;-145.25;72.46
54146;BME280;40052;49.422;7.738;2022-09-27T14:42:31;73427.28;;;-145.25;71.66
54146;BME280;40052;49.422;7.738;2022-09-27T14:45:05;73505.41;;;-145.25;70.11
54146;BME280;40052;49.422;7.738;2022-09-27T14:47:43;73483.38;;;-145.25;68.91
54146;BME280;40052;49.422;7.738;2022-09-27T14:50:22;73541.47;;;-145.25;68.16
54146;BME280;40052;49.422;7.738;2022-09-27T14:52:48;73535.47;;;-145.25;69.91
54146;BME280;40052;49.422;7.738;2022-09-27T14:55:21;73547.47;;;-145.25;69.04
54146;BME280;40052;49.422;7.738;2022-09-27T14:57:58;73583.53;;;-145.25;69.85
54146;BME280;40052;49.422;7.738;2022-09-27T15:00:30;73571.53;;;-145.25;69.66
54146;BME280;40052;49.422;7.738;2022-09-27T15:03:00;73561.50;;;-145.25;70.78
54146;BME280;40052;49.422;7.738;2022-09-27T15:05:33;73555.50;;;-145.25;69.91
54146;BME280;40052;49.422;7.738;2022-09-27T15:08:02;73541.47;;;-145.25;70.37
54146;BME280;40052;49.422;7.738;2022-09-27T15:10:29;73563.50;;;-145.25;71.78
54146;BME280;40052;49.422;7.738;2022-09-27T15:13:00;73543.47;;;-145.25;70.04
54146;BME280;40052;49.422;7.738;2022-09-27T15:15:30;73543.47;;;-145.25;69.27
54146;BME280;40052;49.422;7.738;2022-09-27T15:17:58;73541.47;;;-145.25;69.75
54146;BME280;40052;49.422;7.738;2022-09-27T15:20:33;73567.50;;;-145.25;69.49
54146;BME280;40052;49.422;7.738;2022-09-27T15:23:03;73543.47;;;-145.25;70.64
54146;BME280;40052;49.422;7.738;2022-09-27T15:28:18;73569.50;;;-145.25;69.01
54146;BME280;40052;49.422;7.738;2022-09-27T15:30:56;73595.56;;;-145.25;69.56
54146;BME280;40052;49.422;7.738;2022-09-27T15:33:27;73591.56;;;-145.25;70.25
54146;BME280;40052;49.422;7.738;2022-09-27T15:35:58;73605.56;;;-145.25;69.19
54146;BME280;40052;49.422;7.738;2022-09-27T15:41:24;73613.59;;;-145.25;69.67
54146;BME280;40052;49.422;7.738;2022-09-27T15:43:50;73621.59;;;-145.25;70.23
54146;BME280;40052;49.422;7.738;2022-09-27T15:49:19;73619.59;;;-145.25;71.00
54146;BME280;40052;49.422;7.738;2022-09-27T15:51:53;73623.59;;;-145.25;70.79
54146;BME280;40052;49.422;7.738;2022-09-27T15:54:21;73623.59;;;-145.25;69.79
54146;BME280;40052;49.422;7.738;2022-09-27T15:56:48;73645.66;;;-145.25;70.86
54146;BME280;40052;49.422;7.738;2022-09-27T15:59:28;73645.66;;;-145.25;70.58
54146;BME280;40052;49.422;7.738;2022-09-27T16:01:58;73643.66;;;-145.25;71.09
54146;BME280;40052;49.422;7.738;2022-09-27T16:04:25;73665.69;;;-145.25;70.72
54146;BME280;40052;49.422;7.738;2022-09-27T16:06:52;73679.72;;;-145.25;71.80